sensor_id;sensor_type;location;lat;lon;timestamp;pressure;altitude;pressure_sealevel;temperature;humidity
26697;BME280;14312;52.614;13.496;2023-07-13T00:02:18;100624.31;;;21.74;44.46
26697;BME280;14312;52.614;13.496;2023-07-13T00:05:04;100613.94;;;21.68;44.81
26697;BME280;14312;52.614;13.496;2023-07-13T00:07:51;100613.94;;;21.68;44.71
26697;BME280;14312;52.614;13.496;2023-07-13T00:10:41;100621.09;;;21.64;45.25
26697;BME280;14312;52.614;13.496;2023-07-13T00:13:28;100621.25;;;21.59;45.01
26697;BME280;14312;52.614;13.496;2023-07-13T00:16:14;100615.16;;;21.53;44.95
26697;BME280;14312;52.614;13.496;2023-07-13T00:19:00;100615.50;;;21.52;44.99
26697;BME280;14312;52.614;13.496;2023-07-13T00:21:46;100613.38;;;21.48;45.22
26697;BME280;14312;52.614;13.496;2023-07-13T00:24:32;100613.22;;;21.45;45.16
26697;BME280;14312;52.614;13.496;2023-07-13T00:27:18;100621.66;;;21.43;45.47
26697;BME280;14312;52.614;13.496;2023-07-13T00:30:05;100621.00;;;21.38;45.28
26697;BME280;14312;52.614;13.496;2023-07-13T00:32:51;100627.06;;;21.35;45.51
26697;BME280;14312;52.614;13.496;2023-07-13T00:35:37;100636.94;;;21.31;45.52
26697;BME280;14312;52.614;13.496;2023-07-13T00:38:25;100627.31;;;21.25;45.64
26697;BME280;14312;52.614;13.496;2023-07-13T00:41:11;100622.81;;;21.20;45.53
26697;BME280;14312;52.614;13.496;2023-07-13T00:43:57;100615.59;;;21.16;45.82
26697;BME280;14312;52.614;13.496;2023-07-13T00:46:42;100609.69;;;21.14;45.85
26697;BME280;14312;52.614;13.496;2023-07-13T00:49:30;100627.84;;;21.13;46.07
26697;BME280;14312;52.614;13.496;2023-07-13T00:52:17;100620.97;;;21.07;46.16
26697;BME280;14312;52.614;13.496;2023-07-13T00:55:04;100623.31;;;21.00;46.12
26697;BME280;14312;52.614;13.496;2023-07-13T00:57:50;100624.56;;;20.94;46.32
26697;BME280;14312;52.614;13.496;2023-07-13T01:00:36;100611.47;;;20.87;46.14
26697;BME280;14312;52.614;13.496;2023-07-13T01:03:23;100614.69;;;20.76;46.52
26697;BME280;14312;52.614;13.496;2023-07-13T01:06:09;100616.75;;;20.70;46.63
26697;BME280;14312;52.614;13.496;2023-07-13T01:08:57;100615.56;;;20.62;46.93
26697;BME280;14312;52.614;13.496;2023-07-13T01:11:44;100616.50;;;20.58;46.77
26697;BME280;14312;52.614;13.496;2023-07-13T01:14:31;100611.50;;;20.51;46.88
26697;BME280;14312;52.614;13.496;2023-07-13T01:17:17;100620.84;;;20.45;46.88
26697;BME280;14312;52.614;13.496;2023-07-13T01:20:03;100629.69;;;20.37;46.98
26697;BME280;14312;52.614;13.496;2023-07-13T01:22:50;100622.28;;;20.29;47.51
26697;BME280;14312;52.614;13.496;2023-07-13T01:25:37;100627.91;;;20.19;47.68
26697;BME280;14312;52.614;13.496;2023-07-13T01:28:25;100636.25;;;20.09;47.78
26697;BME280;14312;52.614;13.496;2023-07-13T01:31:12;100636.97;;;20.01;47.65
26697;BME280;14312;52.614;13.496;2023-07-13T01:33:58;100634.16;;;19.92;47.95
26697;BME280;14312;52.614;13.496;2023-07-13T01:36:44;100638.56;;;19.88;48.31
26697;BME280;14312;52.614;13.496;2023-07-13T01:39:30;100637.56;;;19.84;48.10
26697;BME280;14312;52.614;13.496;2023-07-13T01:42:17;100637.66;;;19.79;48.52
26697;BME280;14312;52.614;13.496;2023-07-13T01:45:04;100616.94;;;19.74;48.66
26697;BME280;14312;52.614;13.496;2023-07-13T01:47:50;100618.03;;;19.73;48.78
26697;BME280;14312;52.614;13.496;2023-07-13T01:50:36;100621.84;;;19.72;48.49
26697;BME280;14312;52.614;13.496;2023-07-13T01:53:22;100620.25;;;19.71;48.52
26697;BME280;14312;52.614;13.496;2023-07-13T01:56:08;100620.53;;;19.70;48.98
26697;BME280;14312;52.614;13.496;2023-07-13T01:58:54;100619.25;;;19.67;49.03
26697;BME280;14312;52.614;13.496;2023-07-13T02:01:40;100619.72;;;19.69;49.24
26697;BME280;14312;52.614;13.496;2023-07-13T02:04:26;100618.94;;;19.69;48.90
26697;BME280;14312;52.614;13.496;2023-07-13T02:07:12;100612.72;;;19.68;48.89
26697;BME280;14312;52.614;13.496;2023-07-13T02:09:58;100621.97;;;19.67;49.01
26697;BME280;14312;52.614;13.496;2023-07-13T02:12:44;100621.44;;;19.65;49.16
26697;BME280;14312;52.614;13.496;2023-07-13T02:15:30;100625.53;;;19.63;48.92
26697;BME280;14312;52.614;13.496;2023-07-13T02:18:16;100624.56;;;19.59;49.14
26697;BME280;14312;52.614;13.496;2023-07-13T02:21:03;100621.63;;;19.55;49.13
26697;BME280;14312;52.614;13.496;2023-07-13T02:23:49;100630.34;;;19.52;49.29
26697;BME280;14312;52.614;13.496;2023-07-13T02:26:35;100628.75;;;19.51;49.18
26697;BME280;14312;52.614;13.496;2023-07-13T02:29:21;100634.75;;;19.48;49.42
26697;BME280;14312;52.614;13.496;2023-07-13T02:32:08;100634.53;;;19.44;49.66
26697;BME280;14312;52.614;13.496;2023-07-13T02:34:54;100618.91;;;19.41;49.75
26697;BME280;14312;52.614;13.496;2023-07-13T02:37:40;100616.00;;;19.38;49.66
26697;BME280;14312;52.614;13.496;2023-07-13T02:40:26;100624.09;;;19.38;49.67
26697;BME280;14312;52.614;13.496;2023-07-13T02:43:12;100614.91;;;19.39;50.25
26697;BME280;14312;52.614;13.496;2023-07-13T02:45:59;100611.28;;;19.43;50.15
26697;BME280;14312;52.614;13.496;2023-07-13T02:48:49;100623.94;;;19.48;50.48
26697;BME280;14312;52.614;13.496;2023-07-13T02:51:35;100620.81;;;19.54;50.33
26697;BME280;14312;52.614;13.496;2023-07-13T02:54:21;100619.94;;;19.59;50.78
26697;BME280;14312;52.614;13.496;2023-07-13T02:57:07;100631.16;;;19.66;50.54
26697;BME280;14312;52.614;13.496;2023-07-13T02:59:53;100634.34;;;19.68;50.35
26697;BME280;14312;52.614;13.496;2023-07-13T03:02:39;100629.97;;;19.72;50.42
26697;BME280;14312;52.614;13.496;2023-07-13T03:05:25;100637.44;;;19.75;50.36
26697;BME280;14312;52.614;13.496;2023-07-13T03:08:11;100647.38;;;19.80;50.39
26697;BME280;14312;52.614;13.496;2023-07-13T03:11:15;100664.31;;;19.85;51.52
26697;BME280;14312;52.614;13.496;2023-07-13T03:14:01;100656.19;;;19.85;50.55
26697;BME280;14312;52.614;13.496;2023-07-13T03:16:47;100659.41;;;19.87;50.33
26697;BME280;14312;52.614;13.496;2023-07-13T03:19:33;100653.38;;;19.90;50.15
26697;BME280;14312;52.614;13.496;2023-07-13T03:22:19;100657.81;;;19.86;50.21
26697;BME280;14312;52.614;13.496;2023-07-13T03:25:06;100668.00;;;19.89;50.53
26697;BME280;14312;52.614;13.496;2023-07-13T03:27:52;100659.41;;;19.87;50.74
26697;BME280;14312;52.614;13.496;2023-07-13T03:30:38;100663.00;;;19.83;50.66
26697;BME280;14312;52.614;13.496;2023-07-13T03:33:23;100663.81;;;19.83;50.91
26697;BME280;14312;52.614;13.496;2023-07-13T03:36:13;100668.13;;;19.84;51.38
26697;BME280;14312;52.614;13.496;2023-07-13T03:39:01;100673.00;;;19.82;50.96
26697;BME280;14312;52.614;13.496;2023-07-13T03:41:48;100673.94;;;19.78;50.99
26697;BME280;14312;52.614;13.496;2023-07-13T03:44:35;100679.03;;;19.79;51.08
26697;BME280;14312;52.614;13.496;2023-07-13T03:47:21;100681.22;;;19.77;50.90
26697;BME280;14312;52.614;13.496;2023-07-13T03:50:07;100679.03;;;19.79;51.05
26697;BME280;14312;52.614;13.496;2023-07-13T03:52:53;100692.06;;;19.77;51.12
26697;BME280;14312;52.614;13.496;2023-07-13T03:55:41;100685.03;;;19.76;51.27
26697;BME280;14312;52.614;13.496;2023-07-13T03:58:36;100683.13;;;19.77;51.61
26697;BME280;14312;52.614;13.496;2023-07-13T04:01:24;100684.56;;;19.74;51.31
26697;BME280;14312;52.614;13.496;2023-07-13T04:04:10;100683.25;;;19.72;51.68
26697;BME280;14312;52.614;13.496;2023-07-13T04:06:59;100681.84;;;19.74;52.00
26697;BME280;14312;52.614;13.496;2023-07-13T04:09:45;100686.44;;;19.74;51.68
26697;BME280;14312;52.614;13.496;2023-07-13T04:12:31;100686.13;;;19.75;51.62
26697;BME280;14312;52.614;13.496;2023-07-13T04:15:17;100689.84;;;19.79;51.73
26697;BME280;14312;52.614;13.496;2023-07-13T04:18:03;100693.06;;;19.81;51.73
26697;BME280;14312;52.614;13.496;2023-07-13T04:20:49;100698.97;;;19.83;51.97
26697;BME280;14312;52.614;13.496;2023-07-13T04:23:36;100704.88;;;19.85;51.69
26697;BME280;14312;52.614;13.496;2023-07-13T04:26:23;100702.97;;;19.86;51.73
26697;BME280;14312;52.614;13.496;2023-07-13T04:29:09;100698.09;;;19.88;51.67
26697;BME280;14312;52.614;13.496;2023-07-13T04:31:55;100704.78;;;19.90;52.02
26697;BME280;14312;52.614;13.496;2023-07-13T04:34:41;100698.78;;;19.93;51.69
26697;BME280;14312;52.614;13.496;2023-07-13T04:37:27;100691.47;;;19.94;51.97
26697;BME280;14312;52.614;13.496;2023-07-13T04:40:12;100703.50;;;20.02;51.91
26697;BME280;14312;52.614;13.496;2023-07-13T04:42:58;100705.09;;;20.03;51.99
26697;BME280;14312;52.614;13.496;2023-07-13T04:45:45;100723.31;;;20.11;51.93
26697;BME280;14312;52.614;13.496;2023-07-13T04:48:31;100719.09;;;20.18;52.08
26697;BME280;14312;52.614;13.496;2023-07-13T04:51:17;100725.22;;;20.24;52.08
26697;BME280;14312;52.614;13.496;2023-07-13T04:54:03;100732.13;;;20.30;52.30
26697;BME280;14312;52.614;13.496;2023-07-13T04:56:50;100725.53;;;20.36;51.71
26697;BME280;14312;52.614;13.496;2023-07-13T04:59:36;100722.72;;;20.41;51.87
26697;BME280;14312;52.614;13.496;2023-07-13T05:02:22;100716.72;;;20.44;52.10
26697;BME280;14312;52.614;13.496;2023-07-13T05:05:08;100719.31;;;20.49;51.99
26697;BME280;14312;52.614;13.496;2023-07-13T05:07:54;100722.50;;;20.51;51.98
26697;BME280;14312;52.614;13.496;2023-07-13T05:10:40;100728.91;;;20.55;52.03
26697;BME280;14312;52.614;13.496;2023-07-13T05:13:26;100722.91;;;20.58;51.90
26697;BME280;14312;52.614;13.496;2023-07-13T05:16:12;100732.50;;;20.64;51.93
26697;BME280;14312;52.614;13.496;2023-07-13T05:18:58;100727.28;;;20.68;52.23
26697;BME280;14312;52.614;13.496;2023-07-13T05:21:44;100728.00;;;20.74;52.17
26697;BME280;14312;52.614;13.496;2023-07-13T05:24:30;100731.88;;;20.81;52.00
26697;BME280;14312;52.614;13.496;2023-07-13T05:27:16;100738.47;;;20.89;52.25
26697;BME280;14312;52.614;13.496;2023-07-13T05:30:03;100734.22;;;20.96;52.17
26697;BME280;14312;52.614;13.496;2023-07-13T05:32:49;100733.31;;;21.01;52.05
26697;BME280;14312;52.614;13.496;2023-07-13T05:35:35;100741.00;;;21.07;52.22
26697;BME280;14312;52.614;13.496;2023-07-13T05:38:21;100732.44;;;21.14;52.18
26697;BME280;14312;52.614;13.496;2023-07-13T05:41:07;100744.78;;;21.20;52.25
26697;BME280;14312;52.614;13.496;2023-07-13T05:43:53;100745.16;;;21.27;52.53
26697;BME280;14312;52.614;13.496;2023-07-13T05:46:39;100753.97;;;21.33;52.42
26697;BME280;14312;52.614;13.496;2023-07-13T05:49:25;100742.69;;;21.39;52.41
26697;BME280;14312;52.614;13.496;2023-07-13T05:52:11;100751.19;;;21.46;52.57
26697;BME280;14312;52.614;13.496;2023-07-13T05:54:57;100752.56;;;21.58;52.80
26697;BME280;14312;52.614;13.496;2023-07-13T05:57:43;100746.38;;;21.66;52.29
26697;BME280;14312;52.614;13.496;2023-07-13T06:00:29;100753.13;;;21.77;52.20
26697;BME280;14312;52.614;13.496;2023-07-13T06:03:15;100748.84;;;21.84;52.27
26697;BME280;14312;52.614;13.496;2023-07-13T06:06:01;100751.00;;;21.96;52.37
26697;BME280;14312;52.614;13.496;2023-07-13T06:08:47;100751.84;;;22.05;52.10
26697;BME280;14312;52.614;13.496;2023-07-13T06:11:33;100758.91;;;22.15;52.38
26697;BME280;14312;52.614;13.496;2023-07-13T06:14:20;100754.28;;;22.24;51.96
26697;BME280;14312;52.614;13.496;2023-07-13T06:17:07;100754.81;;;22.35;51.85
26697;BME280;14312;52.614;13.496;2023-07-13T06:19:53;100757.88;;;22.42;51.92
26697;BME280;14312;52.614;13.496;2023-07-13T06:22:39;100748.94;;;22.50;51.97
26697;BME280;14312;52.614;13.496;2023-07-13T06:25:26;100750.88;;;22.58;51.91
26697;BME280;14312;52.614;13.496;2023-07-13T06:28:12;100746.25;;;22.67;51.77
26697;BME280;14312;52.614;13.496;2023-07-13T06:30:59;100742.63;;;22.80;51.74
26697;BME280;14312;52.614;13.496;2023-07-13T06:33:45;100736.88;;;22.90;51.54
26697;BME280;14312;52.614;13.496;2023-07-13T06:36:31;100742.00;;;23.00;51.86
26697;BME280;14312;52.614;13.496;2023-07-13T06:39:17;100736.22;;;23.11;51.46
26697;BME280;14312;52.614;13.496;2023-07-13T06:42:06;100741.81;;;23.23;51.35
26697;BME280;14312;52.614;13.496;2023-07-13T06:44:52;100732.19;;;23.34;51.03
26697;BME280;14312;52.614;13.496;2023-07-13T06:47:38;100737.75;;;23.46;51.12
26697;BME280;14312;52.614;13.496;2023-07-13T06:50:24;100741.78;;;23.57;50.88
26697;BME280;14312;52.614;13.496;2023-07-13T06:53:11;100741.91;;;23.69;50.39
26697;BME280;14312;52.614;13.496;2023-07-13T06:55:57;100740.75;;;23.79;50.07
26697;BME280;14312;52.614;13.496;2023-07-13T06:58:43;100731.78;;;23.87;50.04
26697;BME280;14312;52.614;13.496;2023-07-13T07:01:29;100736.72;;;23.94;49.86
26697;BME280;14312;52.614;13.496;2023-07-13T07:04:15;100729.94;;;24.00;49.68
26697;BME280;14312;52.614;13.496;2023-07-13T07:07:01;100730.25;;;24.07;49.61
26697;BME280;14312;52.614;13.496;2023-07-13T07:09:47;100728.25;;;24.16;49.71
26697;BME280;14312;52.614;13.496;2023-07-13T07:12:33;100722.00;;;24.24;49.38
26697;BME280;14312;52.614;13.496;2023-07-13T07:15:19;100720.50;;;24.35;49.48
26697;BME280;14312;52.614;13.496;2023-07-13T07:18:05;100720.09;;;24.45;49.42
26697;BME280;14312;52.614;13.496;2023-07-13T07:20:51;100730.63;;;24.55;49.08
26697;BME280;14312;52.614;13.496;2023-07-13T07:23:37;100732.50;;;24.64;48.76
26697;BME280;14312;52.614;13.496;2023-07-13T07:26:23;100726.63;;;24.74;48.20
26697;BME280;14312;52.614;13.496;2023-07-13T07:29:10;100735.53;;;24.83;48.07
26697;BME280;14312;52.614;13.496;2023-07-13T07:31:56;100736.75;;;24.94;47.80
26697;BME280;14312;52.614;13.496;2023-07-13T07:34:44;100748.38;;;25.03;46.71
26697;BME280;14312;52.614;13.496;2023-07-13T07:37:29;100746.13;;;25.05;46.27
26697;BME280;14312;52.614;13.496;2023-07-13T07:40:15;100743.88;;;25.07;45.87
26697;BME280;14312;52.614;13.496;2023-07-13T07:43:01;100742.06;;;25.11;45.95
26697;BME280;14312;52.614;13.496;2023-07-13T07:45:47;100747.78;;;25.18;45.54
26697;BME280;14312;52.614;13.496;2023-07-13T07:48:33;100736.66;;;25.23;45.52
26697;BME280;14312;52.614;13.496;2023-07-13T07:51:19;100751.50;;;25.34;45.33
26697;BME280;14312;52.614;13.496;2023-07-13T07:54:05;100747.88;;;25.43;44.63
26697;BME280;14312;52.614;13.496;2023-07-13T07:56:52;100737.88;;;25.47;44.55
26697;BME280;14312;52.614;13.496;2023-07-13T07:59:38;100736.31;;;25.58;44.84
26697;BME280;14312;52.614;13.496;2023-07-13T08:02:27;100741.13;;;25.73;44.06
26697;BME280;14312;52.614;13.496;2023-07-13T08:05:13;100745.13;;;25.88;44.16
26697;BME280;14312;52.614;13.496;2023-07-13T08:07:58;100755.72;;;26.01;43.60
26697;BME280;14312;52.614;13.496;2023-07-13T08:10:44;100758.03;;;26.11;42.48
26697;BME280;14312;52.614;13.496;2023-07-13T08:13:30;100747.31;;;26.19;42.96
26697;BME280;14312;52.614;13.496;2023-07-13T08:16:16;100748.22;;;26.23;42.83
26697;BME280;14312;52.614;13.496;2023-07-13T08:19:02;100756.66;;;26.30;42.63
26697;BME280;14312;52.614;13.496;2023-07-13T08:21:48;100753.50;;;26.40;42.88
26697;BME280;14312;52.614;13.496;2023-07-13T08:24:34;100740.59;;;26.52;42.93
26697;BME280;14312;52.614;13.496;2023-07-13T08:27:20;100746.50;;;26.67;42.17
26697;BME280;14312;52.614;13.496;2023-07-13T08:30:07;100757.84;;;26.81;41.73
26697;BME280;14312;52.614;13.496;2023-07-13T08:32:54;100757.50;;;26.95;41.39
26697;BME280;14312;52.614;13.496;2023-07-13T08:35:39;100759.75;;;27.05;41.84
26697;BME280;14312;52.614;13.496;2023-07-13T08:38:25;100765.16;;;27.17;41.46
26697;BME280;14312;52.614;13.496;2023-07-13T08:41:17;100767.66;;;27.22;40.61
26697;BME280;14312;52.614;13.496;2023-07-13T08:44:04;100765.38;;;27.24;40.94
26697;BME280;14312;52.614;13.496;2023-07-13T08:46:53;100761.84;;;27.23;41.24
26697;BME280;14312;52.614;13.496;2023-07-13T08:49:43;100763.88;;;27.26;41.43
26697;BME280;14312;52.614;13.496;2023-07-13T08:52:36;100779.72;;;27.33;41.04
26697;BME280;14312;52.614;13.496;2023-07-13T08:55:33;100767.34;;;27.39;40.96
26697;BME280;14312;52.614;13.496;2023-07-13T08:58:22;100767.34;;;27.39;41.13
26697;BME280;14312;52.614;13.496;2023-07-13T09:04:33;100766.66;;;27.42;40.36
26697;BME280;14312;52.614;13.496;2023-07-13T09:10:40;100782.91;;;27.35;39.29
26697;BME280;14312;52.614;13.496;2023-07-13T09:13:45;100771.75;;;27.28;39.41
26697;BME280;14312;52.614;13.496;2023-07-13T09:16:35;100762.19;;;27.22;39.57
26697;BME280;14312;52.614;13.496;2023-07-13T09:19:30;100766.84;;;27.21;38.78
26697;BME280;14312;52.614;13.496;2023-07-13T09:22:20;100765.16;;;27.17;39.27
26697;BME280;14312;52.614;13.496;2023-07-13T09:28:22;100766.38;;;27.32;38.76
26697;BME280;14312;52.614;13.496;2023-07-13T09:31:19;100770.09;;;27.39;38.50
26697;BME280;14312;52.614;13.496;2023-07-13T09:34:11;100765.06;;;27.41;38.92
26697;BME280;14312;52.614;13.496;2023-07-13T09:36:58;100759.59;;;27.41;39.49
26697;BME280;14312;52.614;13.496;2023-07-13T09:39:44;100755.00;;;27.45;39.41
26697;BME280;14312;52.614;13.496;2023-07-13T09:42:31;100756.13;;;27.56;39.03
26697;BME280;14312;52.614;13.496;2023-07-13T09:45:27;100755.78;;;27.74;38.50
26697;BME280;14312;52.614;13.496;2023-07-13T09:48:15;100760.13;;;27.90;38.87
26697;BME280;14312;52.614;13.496;2023-07-13T09:51:14;100761.84;;;28.14;38.59
26697;BME280;14312;52.614;13.496;2023-07-13T09:54:00;100770.63;;;28.35;38.70
26697;BME280;14312;52.614;13.496;2023-07-13T09:56:53;100754.75;;;28.60;38.00
26697;BME280;14312;52.614;13.496;2023-07-13T09:59:43;100746.91;;;28.78;37.10
26697;BME280;14312;52.614;13.496;2023-07-13T10:02:35;100757.13;;;28.97;36.85
26697;BME280;14312;52.614;13.496;2023-07-13T10:05:21;100754.72;;;29.14;36.41
26697;BME280;14312;52.614;13.496;2023-07-13T10:08:36;100775.66;;;29.42;36.53
26697;BME280;14312;52.614;13.496;2023-07-13T10:11:27;100756.69;;;29.56;33.92
26697;BME280;14312;52.614;13.496;2023-07-13T10:14:17;100759.66;;;29.67;33.02
26697;BME280;14312;52.614;13.496;2023-07-13T10:17:04;100758.41;;;29.64;33.76
26697;BME280;14312;52.614;13.496;2023-07-13T10:19:51;100754.59;;;29.69;32.87
26697;BME280;14312;52.614;13.496;2023-07-13T10:23:00;100744.31;;;29.66;32.82
26697;BME280;14312;52.614;13.496;2023-07-13T10:25:47;100752.66;;;29.50;33.41
26697;BME280;14312;52.614;13.496;2023-07-13T10:28:36;100751.63;;;29.35;33.82
26697;BME280;14312;52.614;13.496;2023-07-13T10:31:24;100758.34;;;29.18;34.09
26697;BME280;14312;52.614;13.496;2023-07-13T10:34:11;100763.56;;;29.04;34.44
26697;BME280;14312;52.614;13.496;2023-07-13T10:36:58;100763.97;;;28.87;34.87
26697;BME280;14312;52.614;13.496;2023-07-13T10:39:45;100761.00;;;28.76;35.11
26697;BME280;14312;52.614;13.496;2023-07-13T10:42:39;100756.13;;;28.70;34.86
26697;BME280;14312;52.614;13.496;2023-07-13T10:45:29;100763.47;;;28.66;35.38
26697;BME280;14312;52.614;13.496;2023-07-13T10:48:17;100757.19;;;28.65;35.71
26697;BME280;14312;52.614;13.496;2023-07-13T10:51:05;100767.53;;;28.72;35.74
26697;BME280;14312;52.614;13.496;2023-07-13T10:54:16;100762.16;;;28.75;35.44
26697;BME280;14312;52.614;13.496;2023-07-13T11:00:17;100751.41;;;28.86;36.01
26697;BME280;14312;52.614;13.496;2023-07-13T11:03:04;100743.75;;;28.95;35.73
26697;BME280;14312;52.614;13.496;2023-07-13T11:05:51;100743.25;;;29.09;35.70
26697;BME280;14312;52.614;13.496;2023-07-13T11:11:38;100742.34;;;29.43;35.19
26697;BME280;14312;52.614;13.496;2023-07-13T11:20:30;100746.47;;;29.98;33.31
26697;BME280;14312;52.614;13.496;2023-07-13T11:23:21;100746.69;;;30.13;32.79
26697;BME280;14312;52.614;13.496;2023-07-13T11:32:30;100746.66;;;30.09;32.91
26697;BME280;14312;52.614;13.496;2023-07-13T11:35:22;100737.19;;;30.07;31.67
26697;BME280;14312;52.614;13.496;2023-07-13T11:38:18;100739.19;;;30.10;32.19
26697;BME280;14312;52.614;13.496;2023-07-13T11:41:20;100732.91;;;30.09;31.37
26697;BME280;14312;52.614;13.496;2023-07-13T11:44:33;100734.13;;;30.12;31.40
26697;BME280;14312;52.614;13.496;2023-07-13T11:47:22;100730.53;;;30.08;31.35
26697;BME280;14312;52.614;13.496;2023-07-13T11:50:18;100741.19;;;30.13;30.90
26697;BME280;14312;52.614;13.496;2023-07-13T11:53:04;100734.13;;;30.12;30.89
26697;BME280;14312;52.614;13.496;2023-07-13T11:55:50;100724.69;;;30.13;30.57
26697;BME280;14312;52.614;13.496;2023-07-13T11:58:37;100729.47;;;30.16;31.00
26697;BME280;14312;52.614;13.496;2023-07-13T12:01:30;100734.25;;;30.19;31.17
26697;BME280;14312;52.614;13.496;2023-07-13T12:04:31;100727.97;;;30.22;30.91
26697;BME280;14312;52.614;13.496;2023-07-13T12:07:19;100730.31;;;30.20;31.12
26697;BME280;14312;52.614;13.496;2023-07-13T12:12:56;100743.09;;;30.35;30.34
26697;BME280;14312;52.614;13.496;2023-07-13T12:15:45;100733.69;;;30.36;30.77
26697;BME280;14312;52.614;13.496;2023-07-13T12:18:32;100728.16;;;30.32;30.88
26697;BME280;14312;52.614;13.496;2023-07-13T12:21:23;100723.06;;;30.34;31.26
26697;BME280;14312;52.614;13.496;2023-07-13T12:24:16;100732.53;;;30.37;30.90
26697;BME280;14312;52.614;13.496;2023-07-13T12:27:04;100752.63;;;30.41;30.53
26697;BME280;14312;52.614;13.496;2023-07-13T12:30:03;100736.88;;;30.38;30.41
26697;BME280;14312;52.614;13.496;2023-07-13T12:33:05;100749.38;;;30.32;30.19
26697;BME280;14312;52.614;13.496;2023-07-13T12:35:54;100738.56;;;30.20;30.08
26697;BME280;14312;52.614;13.496;2023-07-13T12:38:45;100729.84;;;30.14;29.88
26697;BME280;14312;52.614;13.496;2023-07-13T12:41:32;100741.19;;;30.13;30.12
26697;BME280;14312;52.614;13.496;2023-07-13T12:44:27;100740.47;;;30.16;30.13
26697;BME280;14312;52.614;13.496;2023-07-13T12:47:14;100734.97;;;30.16;30.08
26697;BME280;14312;52.614;13.496;2023-07-13T12:50:03;100735.31;;;30.14;30.21
26697;BME280;14312;52.614;13.496;2023-07-13T12:52:54;100724.69;;;30.13;30.30
26697;BME280;14312;52.614;13.496;2023-07-13T12:55:42;100727.88;;;30.15;30.53
26697;BME280;14312;52.614;13.496;2023-07-13T12:58:32;100729.47;;;30.16;30.69
26697;BME280;14312;52.614;13.496;2023-07-13T13:01:22;100724.41;;;30.18;30.96
26697;BME280;14312;52.614;13.496;2023-07-13T13:04:12;100723.66;;;30.21;30.76
26697;BME280;14312;52.614;13.496;2023-07-13T13:07:04;100727.25;;;30.25;30.54
26697;BME280;14312;52.614;13.496;2023-07-13T13:09:52;100729.16;;;30.21;30.63
26697;BME280;14312;52.614;13.496;2023-07-13T13:12:39;100725.56;;;30.17;30.83
26697;BME280;14312;52.614;13.496;2023-07-13T13:15:27;100714.13;;;30.15;30.56
26697;BME280;14312;52.614;13.496;2023-07-13T13:18:23;100729.53;;;30.19;30.40
26697;BME280;14312;52.614;13.496;2023-07-13T13:21:10;100725.66;;;30.24;30.44
26697;BME280;14312;52.614;13.496;2023-07-13T13:23:56;100716.34;;;30.32;30.62
26697;BME280;14312;52.614;13.496;2023-07-13T13:26:44;100747.22;;;30.48;29.56
26697;BME280;14312;52.614;13.496;2023-07-13T13:29:31;100732.44;;;30.56;29.56
26697;BME280;14312;52.614;13.496;2023-07-13T13:32:17;100727.34;;;30.58;29.79
26697;BME280;14312;52.614;13.496;2023-07-13T13:35:05;100716.88;;;30.67;30.37
26697;BME280;14312;52.614;13.496;2023-07-13T13:37:52;100716.28;;;30.85;29.36
26697;BME280;14312;52.614;13.496;2023-07-13T13:40:38;100725.88;;;30.98;29.63
26697;BME280;14312;52.614;13.496;2023-07-13T13:43:26;100738.66;;;31.13;29.48
26697;BME280;14312;52.614;13.496;2023-07-13T13:46:20;100737.25;;;31.26;29.61
26697;BME280;14312;52.614;13.496;2023-07-13T13:49:14;100746.00;;;31.35;29.33
26697;BME280;14312;52.614;13.496;2023-07-13T13:52:00;100736.53;;;31.33;29.03
26697;BME280;14312;52.614;13.496;2023-07-13T13:54:46;100735.25;;;31.23;28.79
26697;BME280;14312;52.614;13.496;2023-07-13T13:57:32;100735.97;;;31.17;29.46
26697;BME280;14312;52.614;13.496;2023-07-13T14:00:20;100741.84;;;31.15;29.34
26697;BME280;14312;52.614;13.496;2023-07-13T14:03:14;100737.19;;;31.19;29.19
26697;BME280;14312;52.614;13.496;2023-07-13T14:06:02;100750.19;;;31.22;29.58
26697;BME280;14312;52.614;13.496;2023-07-13T14:08:49;100742.00;;;31.29;29.77
26697;BME280;14312;52.614;13.496;2023-07-13T14:11:35;100739.28;;;31.33;29.17
26697;BME280;14312;52.614;13.496;2023-07-13T14:14:22;100738.88;;;31.34;28.82
26697;BME280;14312;52.614;13.496;2023-07-13T14:17:20;100734.97;;;31.35;28.46
26697;BME280;14312;52.614;13.496;2023-07-13T14:20:11;100737.34;;;31.33;28.96
26697;BME280;14312;52.614;13.496;2023-07-13T14:22:57;100741.25;;;31.32;28.88
26697;BME280;14312;52.614;13.496;2023-07-13T14:25:44;100743.59;;;31.30;29.15
26697;BME280;14312;52.614;13.496;2023-07-13T14:28:30;100745.88;;;31.25;29.15
26697;BME280;14312;52.614;13.496;2023-07-13T14:31:17;100750.97;;;31.23;28.75
26697;BME280;14312;52.614;13.496;2023-07-13T14:34:03;100750.94;;;31.19;29.20
26697;BME280;14312;52.614;13.496;2023-07-13T14:36:49;100750.53;;;31.17;28.88
26697;BME280;14312;52.614;13.496;2023-07-13T14:39:36;100765.53;;;31.23;28.26
26697;BME280;14312;52.614;13.496;2023-07-13T14:42:22;100754.47;;;31.20;28.46
26697;BME280;14312;52.614;13.496;2023-07-13T14:45:18;100752.03;;;31.11;28.41
26697;BME280;14312;52.614;13.496;2023-07-13T14:48:33;100743.25;;;31.02;28.48
26697;BME280;14312;52.614;13.496;2023-07-13T14:51:18;100742.38;;;30.98;28.40
26697;BME280;14312;52.614;13.496;2023-07-13T14:54:05;100732.97;;;30.99;28.79
26697;BME280;14312;52.614;13.496;2023-07-13T14:56:51;100751.84;;;30.97;28.57
26697;BME280;14312;52.614;13.496;2023-07-13T14:59:38;100743.88;;;30.92;28.06